sensor_id;sensor_type;location;lat;lon;timestamp;P1;durP1;ratioP1;P2;durP2;ratioP2
17436;SDS011;8836;52.272;5.134;2022-07-29T00:00:07;2.05;;;1.30;;
17436;SDS011;8836;52.272;5.134;2022-07-29T00:02:36;1.35;;;0.70;;
17436;SDS011;8836;52.272;5.134;2022-07-29T00:05:03;3.03;;;1.20;;
17436;SDS011;8836;52.272;5.134;2022-07-29T00:07:31;2.33;;;1.13;;
17436;SDS011;8836;52.272;5.134;2022-07-29T00:09:58;0.98;;;0.93;;
17436;SDS011;8836;52.272;5.134;2022-07-29T00:12:26;1.75;;;0.95;;
17436;SDS011;8836;52.272;5.134;2022-07-29T00:14:54;1.88;;;1.10;;
17436;SDS011;8836;52.272;5.134;2022-07-29T00:17:22;1.27;;;1.00;;
17436;SDS011;8836;52.272;5.134;2022-07-29T00:19:49;1.38;;;1.00;;
17436;SDS011;8836;52.272;5.134;2022-07-29T00:22:17;1.88;;;1.02;;
17436;SDS011;8836;52.272;5.134;2022-07-29T00:24:44;1.92;;;0.90;;
17436;SDS011;8836;52.272;5.134;2022-07-29T00:27:11;1.17;;;0.88;;
17436;SDS011;8836;52.272;5.134;2022-07-29T00:29:39;1.20;;;0.93;;
17436;SDS011;8836;52.272;5.134;2022-07-29T00:32:06;1.10;;;0.80;;
17436;SDS011;8836;52.272;5.134;2022-07-29T00:34:33;2.72;;;1.13;;
17436;SDS011;8836;52.272;5.134;2022-07-29T00:37:17;1.60;;;1.00;;
17436;SDS011;8836;52.272;5.134;2022-07-29T00:39:44;1.38;;;0.93;;
17436;SDS011;8836;52.272;5.134;2022-07-29T00:42:11;1.88;;;1.23;;
17436;SDS011;8836;52.272;5.134;2022-07-29T00:44:40;0.80;;;0.80;;
17436;SDS011;8836;52.272;5.134;2022-07-29T00:47:08;1.67;;;0.95;;
17436;SDS011;8836;52.272;5.134;2022-07-29T00:49:37;1.98;;;1.08;;
17436;SDS011;8836;52.272;5.134;2022-07-29T00:52:06;1.73;;;1.10;;
17436;SDS011;8836;52.272;5.134;2022-07-29T00:54:35;1.85;;;1.10;;
17436;SDS011;8836;52.272;5.134;2022-07-29T00:57:04;2.80;;;1.10;;
17436;SDS011;8836;52.272;5.134;2022-07-29T00:59:33;1.25;;;1.00;;
17436;SDS011;8836;52.272;5.134;2022-07-29T01:02:02;1.35;;;0.98;;
17436;SDS011;8836;52.272;5.134;2022-07-29T01:04:30;0.75;;;0.75;;
17436;SDS011;8836;52.272;5.134;2022-07-29T01:06:58;1.00;;;0.85;;
17436;SDS011;8836;52.272;5.134;2022-07-29T01:09:27;1.17;;;0.90;;
17436;SDS011;8836;52.272;5.134;2022-07-29T01:11:57;2.88;;;0.93;;
17436;SDS011;8836;52.272;5.134;2022-07-29T01:14:25;1.92;;;0.85;;
17436;SDS011;8836;52.272;5.134;2022-07-29T01:16:54;1.63;;;0.90;;
17436;SDS011;8836;52.272;5.134;2022-07-29T01:19:40;1.65;;;0.90;;
17436;SDS011;8836;52.272;5.134;2022-07-29T01:22:24;1.60;;;0.93;;
17436;SDS011;8836;52.272;5.134;2022-07-29T01:25:10;2.20;;;1.10;;
17436;SDS011;8836;52.272;5.134;2022-07-29T01:28:08;3.00;;;1.00;;
17436;SDS011;8836;52.272;5.134;2022-07-29T01:30:52;1.13;;;0.95;;
17436;SDS011;8836;52.272;5.134;2022-07-29T01:33:20;1.10;;;1.00;;
17436;SDS011;8836;52.272;5.134;2022-07-29T01:36:10;1.70;;;1.10;;
17436;SDS011;8836;52.272;5.134;2022-07-29T01:38:41;0.80;;;0.80;;
17436;SDS011;8836;52.272;5.134;2022-07-29T01:41:12;1.20;;;1.08;;
17436;SDS011;8836;52.272;5.134;2022-07-29T01:43:44;1.75;;;0.90;;
17436;SDS011;8836;52.272;5.134;2022-07-29T01:46:25;2.30;;;1.13;;
17436;SDS011;8836;52.272;5.134;2022-07-29T01:49:00;2.72;;;1.23;;
17436;SDS011;8836;52.272;5.134;2022-07-29T01:51:35;1.83;;;1.27;;
17436;SDS011;8836;52.272;5.134;2022-07-29T01:54:13;1.58;;;1.02;;
17436;SDS011;8836;52.272;5.134;2022-07-29T01:56:47;0.90;;;0.90;;
17436;SDS011;8836;52.272;5.134;2022-07-29T01:59:19;1.27;;;0.98;;
17436;SDS011;8836;52.272;5.134;2022-07-29T02:01:50;2.17;;;0.85;;
17436;SDS011;8836;52.272;5.134;2022-07-29T02:04:21;1.00;;;0.80;;
17436;SDS011;8836;52.272;5.134;2022-07-29T02:06:51;1.38;;;0.70;;
17436;SDS011;8836;52.272;5.134;2022-07-29T02:09:22;1.08;;;0.90;;
17436;SDS011;8836;52.272;5.134;2022-07-29T02:11:53;0.88;;;0.80;;
17436;SDS011;8836;52.272;5.134;2022-07-29T02:14:22;1.30;;;0.80;;
17436;SDS011;8836;52.272;5.134;2022-07-29T02:16:53;0.60;;;0.60;;
17436;SDS011;8836;52.272;5.134;2022-07-29T02:19:24;0.73;;;0.70;;
17436;SDS011;8836;52.272;5.134;2022-07-29T02:21:54;1.00;;;0.80;;
17436;SDS011;8836;52.272;5.134;2022-07-29T02:24:24;2.05;;;0.93;;
17436;SDS011;8836;52.272;5.134;2022-07-29T02:26:52;1.23;;;1.02;;
17436;SDS011;8836;52.272;5.134;2022-07-29T02:29:23;1.30;;;0.90;;
17436;SDS011;8836;52.272;5.134;2022-07-29T02:31:55;1.30;;;1.00;;
17436;SDS011;8836;52.272;5.134;2022-07-29T02:34:25;1.98;;;1.00;;
17436;SDS011;8836;52.272;5.134;2022-07-29T02:36:55;1.73;;;1.00;;
17436;SDS011;8836;52.272;5.134;2022-07-29T02:39:22;1.92;;;1.27;;
17436;SDS011;8836;52.272;5.134;2022-07-29T02:41:55;1.42;;;1.05;;
17436;SDS011;8836;52.272;5.134;2022-07-29T02:44:29;1.85;;;1.15;;
17436;SDS011;8836;52.272;5.134;2022-07-29T02:47:02;1.88;;;1.00;;
17436;SDS011;8836;52.272;5.134;2022-07-29T02:49:40;1.35;;;1.20;;
17436;SDS011;8836;52.272;5.134;2022-07-29T02:52:20;1.25;;;1.10;;
17436;SDS011;8836;52.272;5.134;2022-07-29T02:54:53;1.15;;;1.05;;
17436;SDS011;8836;52.272;5.134;2022-07-29T02:57:28;1.38;;;1.13;;
17436;SDS011;8836;52.272;5.134;2022-07-29T03:00:01;1.85;;;1.08;;
17436;SDS011;8836;52.272;5.134;2022-07-29T03:02:35;1.75;;;1.23;;
17436;SDS011;8836;52.272;5.134;2022-07-29T03:05:08;2.40;;;1.30;;
17436;SDS011;8836;52.272;5.134;2022-07-29T03:07:41;2.35;;;1.23;;
17436;SDS011;8836;52.272;5.134;2022-07-29T03:10:13;1.30;;;1.20;;
17436;SDS011;8836;52.272;5.134;2022-07-29T03:12:40;1.80;;;1.55;;
17436;SDS011;8836;52.272;5.134;2022-07-29T03:15:09;2.30;;;1.70;;
17436;SDS011;8836;52.272;5.134;2022-07-29T03:17:38;3.88;;;2.75;;
17436;SDS011;8836;52.272;5.134;2022-07-29T03:20:07;4.43;;;3.75;;
17436;SDS011;8836;52.272;5.134;2022-07-29T03:22:38;5.28;;;3.95;;
17436;SDS011;8836;52.272;5.134;2022-07-29T03:25:08;4.85;;;4.00;;
17436;SDS011;8836;52.272;5.134;2022-07-29T03:27:36;5.47;;;4.47;;
17436;SDS011;8836;52.272;5.134;2022-07-29T03:30:03;5.32;;;4.82;;
17436;SDS011;8836;52.272;5.134;2022-07-29T03:32:32;6.18;;;5.35;;
17436;SDS011;8836;52.272;5.134;2022-07-29T03:35:00;7.63;;;5.60;;
17436;SDS011;8836;52.272;5.134;2022-07-29T03:37:28;6.70;;;5.35;;
17436;SDS011;8836;52.272;5.134;2022-07-29T03:39:56;5.68;;;4.45;;
17436;SDS011;8836;52.272;5.134;2022-07-29T03:42:24;6.05;;;4.65;;
17436;SDS011;8836;52.272;5.134;2022-07-29T03:44:57;5.82;;;4.75;;
17436;SDS011;8836;52.272;5.134;2022-07-29T03:47:29;4.95;;;4.20;;
17436;SDS011;8836;52.272;5.134;2022-07-29T03:50:02;5.80;;;4.40;;
17436;SDS011;8836;52.272;5.134;2022-07-29T03:52:33;4.63;;;3.80;;
17436;SDS011;8836;52.272;5.134;2022-07-29T03:55:01;4.05;;;3.45;;
17436;SDS011;8836;52.272;5.134;2022-07-29T03:57:29;3.97;;;3.13;;
17436;SDS011;8836;52.272;5.134;2022-07-29T03:59:59;5.25;;;3.65;;
17436;SDS011;8836;52.272;5.134;2022-07-29T04:02:29;4.72;;;3.50;;
17436;SDS011;8836;52.272;5.134;2022-07-29T04:04:58;4.28;;;3.53;;
17436;SDS011;8836;52.272;5.134;2022-07-29T04:07:26;6.45;;;4.97;;
17436;SDS011;8836;52.272;5.134;2022-07-29T04:09:54;6.40;;;5.05;;
17436;SDS011;8836;52.272;5.134;2022-07-29T04:12:21;6.90;;;5.00;;
17436;SDS011;8836;52.272;5.134;2022-07-29T04:14:48;8.55;;;6.60;;
17436;SDS011;8836;52.272;5.134;2022-07-29T04:17:15;7.30;;;6.55;;
17436;SDS011;8836;52.272;5.134;2022-07-29T04:19:42;7.30;;;5.60;;
17436;SDS011;8836;52.272;5.134;2022-07-29T04:22:09;6.35;;;5.15;;
17436;SDS011;8836;52.272;5.134;2022-07-29T04:24:37;6.47;;;4.93;;
17436;SDS011;8836;52.272;5.134;2022-07-29T04:27:04;6.57;;;4.93;;
17436;SDS011;8836;52.272;5.134;2022-07-29T04:29:31;5.10;;;4.00;;
17436;SDS011;8836;52.272;5.134;2022-07-29T04:31:58;4.60;;;3.70;;
17436;SDS011;8836;52.272;5.134;2022-07-29T04:34:25;4.88;;;3.20;;
17436;SDS011;8836;52.272;5.134;2022-07-29T04:36:52;3.45;;;2.85;;
17436;SDS011;8836;52.272;5.134;2022-07-29T04:39:19;3.17;;;2.70;;
17436;SDS011;8836;52.272;5.134;2022-07-29T04:41:47;2.53;;;2.13;;
17436;SDS011;8836;52.272;5.134;2022-07-29T04:44:15;3.22;;;2.08;;
17436;SDS011;8836;52.272;5.134;2022-07-29T04:46:42;2.25;;;1.70;;
17436;SDS011;8836;52.272;5.134;2022-07-29T04:49:09;3.65;;;2.65;;
17436;SDS011;8836;52.272;5.134;2022-07-29T04:51:36;4.43;;;2.72;;
17436;SDS011;8836;52.272;5.134;2022-07-29T04:54:03;5.40;;;3.30;;
17436;SDS011;8836;52.272;5.134;2022-07-29T04:56:31;4.22;;;3.47;;
17436;SDS011;8836;52.272;5.134;2022-07-29T04:58:59;3.53;;;3.22;;
17436;SDS011;8836;52.272;5.134;2022-07-29T05:01:26;4.70;;;3.22;;
17436;SDS011;8836;52.272;5.134;2022-07-29T05:03:53;4.43;;;3.35;;
17436;SDS011;8836;52.272;5.134;2022-07-29T05:06:20;3.20;;;2.90;;
17436;SDS011;8836;52.272;5.134;2022-07-29T05:08:47;4.78;;;3.38;;
17436;SDS011;8836;52.272;5.134;2022-07-29T05:11:14;3.70;;;2.70;;
17436;SDS011;8836;52.272;5.134;2022-07-29T05:13:41;3.88;;;2.70;;
17436;SDS011;8836;52.272;5.134;2022-07-29T05:16:09;2.75;;;2.47;;
17436;SDS011;8836;52.272;5.134;2022-07-29T05:18:36;2.20;;;2.00;;
17436;SDS011;8836;52.272;5.134;2022-07-29T05:21:04;4.07;;;2.33;;
17436;SDS011;8836;52.272;5.134;2022-07-29T05:23:31;3.97;;;2.90;;
17436;SDS011;8836;52.272;5.134;2022-07-29T05:25:58;4.72;;;3.20;;
17436;SDS011;8836;52.272;5.134;2022-07-29T05:28:25;4.80;;;3.00;;
17436;SDS011;8836;52.272;5.134;2022-07-29T05:30:52;3.38;;;2.50;;
17436;SDS011;8836;52.272;5.134;2022-07-29T05:33:20;2.95;;;2.33;;
17436;SDS011;8836;52.272;5.134;2022-07-29T05:35:47;2.47;;;1.70;;
17436;SDS011;8836;52.272;5.134;2022-07-29T05:38:13;3.15;;;1.85;;
17436;SDS011;8836;52.272;5.134;2022-07-29T05:40:40;4.05;;;1.70;;
17436;SDS011;8836;52.272;5.134;2022-07-29T05:43:07;3.17;;;1.48;;
17436;SDS011;8836;52.272;5.134;2022-07-29T05:45:34;1.60;;;1.40;;
17436;SDS011;8836;52.272;5.134;2022-07-29T05:48:02;2.92;;;1.42;;
17436;SDS011;8836;52.272;5.134;2022-07-29T05:50:30;1.52;;;1.40;;
17436;SDS011;8836;52.272;5.134;2022-07-29T05:52:57;2.90;;;1.60;;
17436;SDS011;8836;52.272;5.134;2022-07-29T05:55:24;1.92;;;1.42;;
17436;SDS011;8836;52.272;5.134;2022-07-29T05:57:51;2.47;;;1.08;;
17436;SDS011;8836;52.272;5.134;2022-07-29T06:00:18;1.50;;;1.40;;
17436;SDS011;8836;52.272;5.134;2022-07-29T06:02:45;1.48;;;1.00;;
17436;SDS011;8836;52.272;5.134;2022-07-29T06:05:12;1.58;;;1.25;;
17436;SDS011;8836;52.272;5.134;2022-07-29T06:07:41;2.15;;;1.40;;
17436;SDS011;8836;52.272;5.134;2022-07-29T06:10:08;1.60;;;1.50;;
17436;SDS011;8836;52.272;5.134;2022-07-29T06:12:35;1.83;;;1.60;;
17436;SDS011;8836;52.272;5.134;2022-07-29T06:15:02;3.03;;;1.90;;
17436;SDS011;8836;52.272;5.134;2022-07-29T06:17:31;3.72;;;1.95;;
17436;SDS011;8836;52.272;5.134;2022-07-29T06:19:58;3.22;;;2.15;;
17436;SDS011;8836;52.272;5.134;2022-07-29T06:22:24;3.65;;;2.60;;
17436;SDS011;8836;52.272;5.134;2022-07-29T06:24:53;3.58;;;2.45;;
17436;SDS011;8836;52.272;5.134;2022-07-29T06:27:20;3.05;;;2.65;;
17436;SDS011;8836;52.272;5.134;2022-07-29T06:29:47;3.35;;;2.40;;
17436;SDS011;8836;52.272;5.134;2022-07-29T06:32:14;4.55;;;2.75;;
17436;SDS011;8836;52.272;5.134;2022-07-29T06:34:41;3.55;;;2.42;;
17436;SDS011;8836;52.272;5.134;2022-07-29T06:37:08;3.08;;;2.10;;
17436;SDS011;8836;52.272;5.134;2022-07-29T06:39:35;2.88;;;1.92;;
17436;SDS011;8836;52.272;5.134;2022-07-29T06:42:04;2.72;;;1.67;;
17436;SDS011;8836;52.272;5.134;2022-07-29T06:44:32;2.50;;;1.60;;
17436;SDS011;8836;52.272;5.134;2022-07-29T06:46:59;2.35;;;1.40;;
17436;SDS011;8836;52.272;5.134;2022-07-29T06:49:26;2.40;;;1.50;;
17436;SDS011;8836;52.272;5.134;2022-07-29T06:51:53;3.42;;;1.85;;
17436;SDS011;8836;52.272;5.134;2022-07-29T06:54:21;2.42;;;1.90;;
17436;SDS011;8836;52.272;5.134;2022-07-29T06:56:48;2.58;;;1.60;;
17436;SDS011;8836;52.272;5.134;2022-07-29T06:59:16;1.67;;;1.58;;
17436;SDS011;8836;52.272;5.134;2022-07-29T07:01:43;1.98;;;1.70;;
17436;SDS011;8836;52.272;5.134;2022-07-29T07:04:10;3.88;;;1.58;;
17436;SDS011;8836;52.272;5.134;2022-07-29T07:06:38;3.13;;;1.60;;
17436;SDS011;8836;52.272;5.134;2022-07-29T07:09:05;1.83;;;1.25;;
17436;SDS011;8836;52.272;5.134;2022-07-29T07:11:33;2.35;;;1.50;;
17436;SDS011;8836;52.272;5.134;2022-07-29T07:14:00;2.17;;;1.63;;
17436;SDS011;8836;52.272;5.134;2022-07-29T07:16:28;2.03;;;1.20;;
17436;SDS011;8836;52.272;5.134;2022-07-29T07:18:55;1.90;;;1.40;;
17436;SDS011;8836;52.272;5.134;2022-07-29T07:21:23;2.25;;;1.40;;
17436;SDS011;8836;52.272;5.134;2022-07-29T07:23:50;2.38;;;1.83;;
17436;SDS011;8836;52.272;5.134;2022-07-29T07:26:17;3.05;;;1.60;;
17436;SDS011;8836;52.272;5.134;2022-07-29T07:28:44;2.85;;;1.30;;
17436;SDS011;8836;52.272;5.134;2022-07-29T07:31:10;3.17;;;1.60;;
17436;SDS011;8836;52.272;5.134;2022-07-29T07:33:39;2.85;;;1.27;;
17436;SDS011;8836;52.272;5.134;2022-07-29T07:36:06;2.10;;;1.25;;
17436;SDS011;8836;52.272;5.134;2022-07-29T07:38:33;1.63;;;1.33;;
17436;SDS011;8836;52.272;5.134;2022-07-29T07:41:00;2.25;;;1.73;;
17436;SDS011;8836;52.272;5.134;2022-07-29T07:43:27;2.95;;;1.70;;
17436;SDS011;8836;52.272;5.134;2022-07-29T07:45:54;3.53;;;1.55;;
17436;SDS011;8836;52.272;5.134;2022-07-29T07:48:22;2.25;;;1.30;;
17436;SDS011;8836;52.272;5.134;2022-07-29T07:50:50;2.38;;;1.60;;
17436;SDS011;8836;52.272;5.134;2022-07-29T07:53:17;1.77;;;1.25;;
17436;SDS011;8836;52.272;5.134;2022-07-29T07:55:44;2.65;;;1.95;;
17436;SDS011;8836;52.272;5.134;2022-07-29T07:58:11;2.38;;;1.60;;
17436;SDS011;8836;52.272;5.134;2022-07-29T08:00:38;2.35;;;1.30;;
17436;SDS011;8836;52.272;5.134;2022-07-29T08:03:05;3.40;;;1.83;;
17436;SDS011;8836;52.272;5.134;2022-07-29T08:05:32;3.25;;;1.67;;
17436;SDS011;8836;52.272;5.134;2022-07-29T08:08:00;1.75;;;1.40;;
17436;SDS011;8836;52.272;5.134;2022-07-29T08:10:27;2.03;;;1.60;;
17436;SDS011;8836;52.272;5.134;2022-07-29T08:13:12;2.17;;;1.75;;
17436;SDS011;8836;52.272;5.134;2022-07-29T08:15:39;1.88;;;1.75;;
17436;SDS011;8836;52.272;5.134;2022-07-29T08:18:08;2.30;;;1.63;;
17436;SDS011;8836;52.272;5.134;2022-07-29T08:20:35;4.03;;;1.95;;
17436;SDS011;8836;52.272;5.134;2022-07-29T08:23:05;3.67;;;1.65;;
17436;SDS011;8836;52.272;5.134;2022-07-29T08:25:35;2.92;;;1.58;;
17436;SDS011;8836;52.272;5.134;2022-07-29T08:28:03;3.53;;;2.45;;
17436;SDS011;8836;52.272;5.134;2022-07-29T08:30:31;2.17;;;1.65;;
17436;SDS011;8836;52.272;5.134;2022-07-29T08:32:58;3.50;;;2.30;;
17436;SDS011;8836;52.272;5.134;2022-07-29T08:35:25;2.13;;;1.50;;
17436;SDS011;8836;52.272;5.134;2022-07-29T08:37:53;2.45;;;1.42;;
17436;SDS011;8836;52.272;5.134;2022-07-29T08:40:23;1.73;;;1.45;;
17436;SDS011;8836;52.272;5.134;2022-07-29T08:42:51;2.88;;;2.08;;
17436;SDS011;8836;52.272;5.134;2022-07-29T08:45:18;1.92;;;1.60;;
17436;SDS011;8836;52.272;5.134;2022-07-29T08:47:47;1.35;;;1.25;;
17436;SDS011;8836;52.272;5.134;2022-07-29T08:50:14;2.00;;;1.60;;
17436;SDS011;8836;52.272;5.134;2022-07-29T08:52:41;2.13;;;1.95;;
17436;SDS011;8836;52.272;5.134;2022-07-29T08:55:09;2.05;;;1.60;;
17436;SDS011;8836;52.272;5.134;2022-07-29T08:57:39;2.40;;;1.20;;
17436;SDS011;8836;52.272;5.134;2022-07-29T09:00:07;3.53;;;1.73;;
17436;SDS011;8836;52.272;5.134;2022-07-29T09:02:38;2.80;;;2.20;;
17436;SDS011;8836;52.272;5.134;2022-07-29T09:05:10;2.55;;;1.65;;
17436;SDS011;8836;52.272;5.134;2022-07-29T09:07:38;1.75;;;1.40;;
17436;SDS011;8836;52.272;5.134;2022-07-29T09:10:08;2.05;;;1.60;;
17436;SDS011;8836;52.272;5.134;2022-07-29T09:12:36;2.60;;;2.00;;
17436;SDS011;8836;52.272;5.134;2022-07-29T09:15:04;2.35;;;1.38;;
17436;SDS011;8836;52.272;5.134;2022-07-29T09:17:42;4.10;;;1.92;;
17436;SDS011;8836;52.272;5.134;2022-07-29T09:20:10;2.28;;;1.90;;
17436;SDS011;8836;52.272;5.134;2022-07-29T09:22:41;2.60;;;1.70;;
17436;SDS011;8836;52.272;5.134;2022-07-29T09:25:07;3.00;;;1.75;;
17436;SDS011;8836;52.272;5.134;2022-07-29T09:27:34;3.53;;;1.70;;
17436;SDS011;8836;52.272;5.134;2022-07-29T09:30:02;2.55;;;1.55;;
17436;SDS011;8836;52.272;5.134;2022-07-29T09:32:53;4.05;;;2.35;;
17436;SDS011;8836;52.272;5.134;2022-07-29T09:35:24;3.75;;;2.40;;
17436;SDS011;8836;52.272;5.134;2022-07-29T09:37:53;2.35;;;1.55;;
17436;SDS011;8836;52.272;5.134;2022-07-29T09:40:21;2.90;;;1.80;;
17436;SDS011;8836;52.272;5.134;2022-07-29T09:42:51;1.92;;;1.63;;
17436;SDS011;8836;52.272;5.134;2022-07-29T09:45:28;3.38;;;2.08;;
17436;SDS011;8836;52.272;5.134;2022-07-29T09:47:57;3.42;;;2.40;;
17436;SDS011;8836;52.272;5.134;2022-07-29T09:50:34;2.85;;;2.10;;
17436;SDS011;8836;52.272;5.134;2022-07-29T09:53:03;4.13;;;2.60;;
17436;SDS011;8836;52.272;5.134;2022-07-29T09:55:30;3.70;;;2.25;;
17436;SDS011;8836;52.272;5.134;2022-07-29T10:00:45;4.20;;;2.42;;
17436;SDS011;8836;52.272;5.134;2022-07-29T10:03:15;3.05;;;2.67;;
17436;SDS011;8836;52.272;5.134;2022-07-29T10:05:43;3.58;;;2.50;;
17436;SDS011;8836;52.272;5.134;2022-07-29T10:08:12;3.25;;;2.60;;
17436;SDS011;8836;52.272;5.134;2022-07-29T10:10:39;3.70;;;2.30;;
17436;SDS011;8836;52.272;5.134;2022-07-29T10:13:09;4.30;;;2.92;;
17436;SDS011;8836;52.272;5.134;2022-07-29T10:15:40;3.08;;;2.67;;
17436;SDS011;8836;52.272;5.134;2022-07-29T10:18:12;3.00;;;2.17;;
17436;SDS011;8836;52.272;5.134;2022-07-29T10:20:42;3.55;;;2.50;;
17436;SDS011;8836;52.272;5.134;2022-07-29T10:23:09;4.70;;;3.03;;
17436;SDS011;8836;52.272;5.134;2022-07-29T10:25:36;2.72;;;2.53;;
17436;SDS011;8836;52.272;5.134;2022-07-29T10:28:05;2.92;;;2.63;;
17436;SDS011;8836;52.272;5.134;2022-07-29T10:30:32;4.47;;;2.78;;
17436;SDS011;8836;52.272;5.134;2022-07-29T10:33:11;3.90;;;3.05;;
17436;SDS011;8836;52.272;5.134;2022-07-29T10:36:04;3.72;;;2.60;;
17436;SDS011;8836;52.272;5.134;2022-07-29T10:38:50;4.43;;;2.60;;
17436;SDS011;8836;52.272;5.134;2022-07-29T10:41:33;2.63;;;2.03;;
17436;SDS011;8836;52.272;5.134;2022-07-29T10:44:20;3.70;;;1.80;;
17436;SDS011;8836;52.272;5.134;2022-07-29T10:46:48;3.50;;;2.58;;
17436;SDS011;8836;52.272;5.134;2022-07-29T10:49:19;4.70;;;2.88;;
17436;SDS011;8836;52.272;5.134;2022-07-29T10:54:38;3.20;;;2.30;;
17436;SDS011;8836;52.272;5.134;2022-07-29T10:57:16;5.53;;;2.95;;
17436;SDS011;8836;52.272;5.134;2022-07-29T11:02:53;3.40;;;1.90;;
17436;SDS011;8836;52.272;5.134;2022-07-29T11:05:24;3.67;;;2.40;;
17436;SDS011;8836;52.272;5.134;2022-07-29T11:10:50;2.30;;;1.85;;
17436;SDS011;8836;52.272;5.134;2022-07-29T11:13:46;3.95;;;2.55;;
17436;SDS011;8836;52.272;5.134;2022-07-29T11:16:16;4.22;;;2.55;;
17436;SDS011;8836;52.272;5.134;2022-07-29T11:21:55;3.78;;;2.45;;
17436;SDS011;8836;52.272;5.134;2022-07-29T11:24:23;3.13;;;1.88;;
17436;SDS011;8836;52.272;5.134;2022-07-29T11:27:09;2.83;;;1.90;;
17436;SDS011;8836;52.272;5.134;2022-07-29T11:29:51;4.90;;;2.10;;
17436;SDS011;8836;52.272;5.134;2022-07-29T11:32:21;5.47;;;2.40;;
17436;SDS011;8836;52.272;5.134;2022-07-29T11:37:40;3.47;;;2.00;;
17436;SDS011;8836;52.272;5.134;2022-07-29T11:40:08;3.10;;;1.95;;
17436;SDS011;8836;52.272;5.134;2022-07-29T11:42:40;2.58;;;2.15;;
17436;SDS011;8836;52.272;5.134;2022-07-29T11:45:13;3.70;;;2.50;;
17436;SDS011;8836;52.272;5.134;2022-07-29T11:47:46;4.03;;;2.30;;
17436;SDS011;8836;52.272;5.134;2022-07-29T11:50:18;2.58;;;1.92;;
17436;SDS011;8836;52.272;5.134;2022-07-29T11:53:02;4.10;;;2.92;;
17436;SDS011;8836;52.272;5.134;2022-07-29T11:55:38;3.28;;;2.38;;
17436;SDS011;8836;52.272;5.134;2022-07-29T14:01:25;2.20;;;1.58;;
17436;SDS011;8836;52.272;5.134;2022-07-29T14:03:53;3.97;;;1.92;;
17436;SDS011;8836;52.272;5.134;2022-07-29T14:06:19;3.05;;;1.95;;
17436;SDS011;8836;52.272;5.134;2022-07-29T14:08:46;1.90;;;1.73;;
17436;SDS011;8836;52.272;5.134;2022-07-29T14:11:16;2.92;;;2.17;;
17436;SDS011;8836;52.272;5.134;2022-07-29T14:13:44;2.80;;;2.00;;
17436;SDS011;8836;52.272;5.134;2022-07-29T14:16:11;3.20;;;2.50;;
17436;SDS011;8836;52.272;5.134;2022-07-29T14:18:39;3.67;;;2.60;;
17436;SDS011;8836;52.272;5.134;2022-07-29T14:21:07;4.22;;;3.08;;
17436;SDS011;8836;52.272;5.134;2022-07-29T14:23:34;4.75;;;3.20;;
17436;SDS011;8836;52.272;5.134;2022-07-29T14:26:02;2.30;;;2.10;;
17436;SDS011;8836;52.272;5.134;2022-07-29T14:28:29;5.22;;;2.38;;
17436;SDS011;8836;52.272;5.134;2022-07-29T14:30:56;4.68;;;3.50;;
17436;SDS011;8836;52.272;5.134;2022-07-29T14:33:23;4.78;;;3.35;;
17436;SDS011;8836;52.272;5.134;2022-07-29T14:35:52;4.60;;;3.25;;
17436;SDS011;8836;52.272;5.134;2022-07-29T14:38:19;6.97;;;3.40;;
17436;SDS011;8836;52.272;5.134;2022-07-29T14:40:46;4.80;;;3.33;;
17436;SDS011;8836;52.272;5.134;2022-07-29T14:43:13;5.40;;;3.47;;
17436;SDS011;8836;52.272;5.134;2022-07-29T14:45:42;4.35;;;3.55;;
17436;SDS011;8836;52.272;5.134;2022-07-29T14:48:12;4.93;;;3.70;;
17436;SDS011;8836;52.272;5.134;2022-07-29T14:50:40;5.18;;;3.33;;
17436;SDS011;8836;52.272;5.134;2022-07-29T14:53:09;4.45;;;3.10;;
17436;SDS011;8836;52.272;5.134;2022-07-29T14:55:37;5.47;;;3.10;;
17436;SDS011;8836;52.272;5.134;2022-07-29T14:58:06;3.63;;;2.45;;
17436;SDS011;8836;52.272;5.134;2022-07-29T15:00:34;4.47;;;2.83;;
17436;SDS011;8836;52.272;5.134;2022-07-29T15:03:04;4.13;;;2.40;;
17436;SDS011;8836;52.272;5.134;2022-07-29T15:05:31;2.33;;;1.80;;
17436;SDS011;8836;52.272;5.134;2022-07-29T15:08:04;2.60;;;1.65;;
17436;SDS011;8836;52.272;5.134;2022-07-29T15:10:35;2.65;;;1.85;;
17436;SDS011;8836;52.272;5.134;2022-07-29T15:13:02;2.65;;;2.25;;
17436;SDS011;8836;52.272;5.134;2022-07-29T15:15:29;3.22;;;2.15;;
17436;SDS011;8836;52.272;5.134;2022-07-29T15:17:56;3.33;;;1.92;;
17436;SDS011;8836;52.272;5.134;2022-07-29T15:20:23;4.40;;;1.80;;
17436;SDS011;8836;52.272;5.134;2022-07-29T15:22:52;4.35;;;1.75;;
17436;SDS011;8836;52.272;5.134;2022-07-29T15:25:20;2.65;;;1.48;;
17436;SDS011;8836;52.272;5.134;2022-07-29T15:27:49;4.38;;;1.90;;
17436;SDS011;8836;52.272;5.134;2022-07-29T15:30:16;2.85;;;2.10;;
17436;SDS011;8836;52.272;5.134;2022-07-29T15:32:43;3.88;;;1.80;;
17436;SDS011;8836;52.272;5.134;2022-07-29T15:35:10;5.05;;;1.77;;
17436;SDS011;8836;52.272;5.134;2022-07-29T15:37:37;2.03;;;1.75;;
17436;SDS011;8836;52.272;5.134;2022-07-29T15:40:05;3.60;;;1.50;;
17436;SDS011;8836;52.272;5.134;2022-07-29T15:42:34;3.55;;;1.90;;
17436;SDS011;8836;52.272;5.134;2022-07-29T15:45:03;1.70;;;1.20;;
17436;SDS011;8836;52.272;5.134;2022-07-29T15:47:31;1.50;;;1.10;;
17436;SDS011;8836;52.272;5.134;2022-07-29T15:50:00;6.43;;;1.90;;
17436;SDS011;8836;52.272;5.134;2022-07-29T15:52:28;3.13;;;1.63;;
17436;SDS011;8836;52.272;5.134;2022-07-29T15:54:55;2.15;;;1.40;;
17436;SDS011;8836;52.272;5.134;2022-07-29T15:57:23;3.83;;;1.88;;
17436;SDS011;8836;52.272;5.134;2022-07-29T15:59:51;1.50;;;1.15;;
17436;SDS011;8836;52.272;5.134;2022-07-29T16:02:20;2.58;;;1.55;;
17436;SDS011;8836;52.272;5.134;2022-07-29T16:04:49;2.13;;;1.42;;
17436;SDS011;8836;52.272;5.134;2022-07-29T16:07:18;2.65;;;1.48;;
17436;SDS011;8836;52.272;5.134;2022-07-29T16:09:45;2.45;;;1.60;;
17436;SDS011;8836;52.272;5.134;2022-07-29T16:12:12;3.55;;;1.63;;
17436;SDS011;8836;52.272;5.134;2022-07-29T16:14:41;1.70;;;1.25;;
17436;SDS011;8836;52.272;5.134;2022-07-29T16:17:08;2.33;;;1.40;;
17436;SDS011;8836;52.272;5.134;2022-07-29T16:19:37;2.75;;;1.65;;
17436;SDS011;8836;52.272;5.134;2022-07-29T16:22:04;2.53;;;1.48;;
17436;SDS011;8836;52.272;5.134;2022-07-29T16:24:31;1.95;;;1.30;;
17436;SDS011;8836;52.272;5.134;2022-07-29T16:26:58;2.15;;;1.40;;
17436;SDS011;8836;52.272;5.134;2022-07-29T16:29:26;2.92;;;1.55;;
17436;SDS011;8836;52.272;5.134;2022-07-29T16:31:53;3.08;;;1.40;;
17436;SDS011;8836;52.272;5.134;2022-07-29T16:34:21;1.92;;;1.58;;
17436;SDS011;8836;52.272;5.134;2022-07-29T16:36:49;3.22;;;1.60;;
17436;SDS011;8836;52.272;5.134;2022-07-29T16:39:16;2.35;;;1.58;;
17436;SDS011;8836;52.272;5.134;2022-07-29T16:41:44;2.03;;;1.27;;
17436;SDS011;8836;52.272;5.134;2022-07-29T16:44:11;2.90;;;1.40;;
17436;SDS011;8836;52.272;5.134;2022-07-29T16:46:38;2.78;;;1.45;;
17436;SDS011;8836;52.272;5.134;2022-07-29T16:49:10;3.45;;;1.20;;
17436;SDS011;8836;52.272;5.134;2022-07-29T16:51:38;3.33;;;2.35;;
17436;SDS011;8836;52.272;5.134;2022-07-29T16:54:06;1.75;;;1.50;;
17436;SDS011;8836;52.272;5.134;2022-07-29T16:56:34;2.25;;;1.50;;
17436;SDS011;8836;52.272;5.134;2022-07-29T16:59:02;2.15;;;1.42;;
17436;SDS011;8836;52.272;5.134;2022-07-29T17:01:29;3.30;;;1.70;;
17436;SDS011;8836;52.272;5.134;2022-07-29T17:03:56;3.75;;;1.67;;
17436;SDS011;8836;52.272;5.134;2022-07-29T17:06:32;3.05;;;1.60;;
17436;SDS011;8836;52.272;5.134;2022-07-29T17:09:01;3.30;;;1.45;;
17436;SDS011;8836;52.272;5.134;2022-07-29T17:11:31;4.05;;;1.42;;
17436;SDS011;8836;52.272;5.134;2022-07-29T17:13:59;2.20;;;1.45;;
17436;SDS011;8836;52.272;5.134;2022-07-29T17:16:27;2.00;;;1.30;;
17436;SDS011;8836;52.272;5.134;2022-07-29T17:18:54;2.28;;;1.60;;
17436;SDS011;8836;52.272;5.134;2022-07-29T17:21:23;3.67;;;1.50;;
17436;SDS011;8836;52.272;5.134;2022-07-29T17:23:51;2.47;;;1.40;;
17436;SDS011;8836;52.272;5.134;2022-07-29T17:26:19;2.20;;;1.48;;
17436;SDS011;8836;52.272;5.134;2022-07-29T17:28:47;2.05;;;1.42;;
17436;SDS011;8836;52.272;5.134;2022-07-29T17:31:17;1.10;;;1.00;;
17436;SDS011;8836;52.272;5.134;2022-07-29T17:33:45;1.58;;;1.30;;